createdAt,value
2022-10-19T00:01:47.774Z,13.98
2022-10-19T00:04:15.068Z,13.95
2022-10-19T00:06:42.249Z,13.95
2022-10-19T00:09:10.960Z,13.92
2022-10-19T00:11:40.077Z,13.91
2022-10-19T00:14:08.348Z,13.86
2022-10-19T00:16:36.581Z,13.77
2022-10-19T00:19:05.474Z,13.72
2022-10-19T00:21:33.037Z,13.72
2022-10-19T00:24:00.111Z,13.72
2022-10-19T00:26:27.426Z,13.73
2022-10-19T00:28:55.454Z,13.69
2022-10-19T00:31:23.091Z,13.61
2022-10-19T00:33:50.592Z,13.60
2022-10-19T00:36:19.853Z,13.57
2022-10-19T00:38:47.554Z,13.51
2022-10-19T00:41:14.979Z,13.42
2022-10-19T00:44:01.674Z,13.37
2022-10-19T00:46:29.929Z,13.35
2022-10-19T00:49:03.286Z,13.34
2022-10-19T00:51:33.132Z,13.34
2022-10-19T00:54:01.382Z,13.33
2022-10-19T00:56:28.503Z,13.33
2022-10-19T00:58:55.590Z,13.34
2022-10-19T01:01:24.519Z,13.35
2022-10-19T01:03:51.627Z,13.37
2022-10-19T01:06:19.605Z,13.37
2022-10-19T01:08:46.833Z,13.39
2022-10-19T01:11:16.643Z,13.40
2022-10-19T01:13:52.803Z,13.40
2022-10-19T01:16:46.017Z,13.39
2022-10-19T01:19:19.143Z,13.37
2022-10-19T01:21:50.590Z,13.35
2022-10-19T01:24:40.677Z,13.33
2022-10-19T01:27:13.873Z,13.31
2022-10-19T01:29:57.767Z,13.28
2022-10-19T01:32:27.771Z,13.24
2022-10-19T01:35:02.834Z,13.19
2022-10-19T01:37:36.102Z,13.13
2022-10-19T01:40:07.977Z,13.09
2022-10-19T01:43:02.433Z,13.05
2022-10-19T01:45:52.629Z,12.98
2022-10-19T01:48:23.334Z,12.98
2022-10-19T01:50:50.450Z,13.02
2022-10-19T01:53:19.275Z,13.04
2022-10-19T01:55:49.025Z,13.06
2022-10-19T01:58:17.588Z,13.06
2022-10-19T02:00:46.661Z,13.03
2022-10-19T02:03:14.940Z,13.01
2022-10-19T02:05:43.434Z,13.01
2022-10-19T02:08:24.939Z,13.00
2022-10-19T02:10:52.138Z,13.01
2022-10-19T02:13:20.658Z,12.99
2022-10-19T02:15:50.299Z,12.99
2022-10-19T02:18:19.774Z,12.98
2022-10-19T02:20:46.825Z,13.00
2022-10-19T02:23:17.040Z,13.03
2022-10-19T02:25:44.177Z,13.03
2022-10-19T02:28:11.476Z,13.02
2022-10-19T02:30:38.553Z,12.99
2022-10-19T02:33:05.636Z,12.95
2022-10-19T02:35:33.062Z,12.92
2022-10-19T02:38:02.254Z,12.91
2022-10-19T02:40:32.724Z,12.92
2022-10-19T02:43:01.672Z,12.93
2022-10-19T02:45:31.481Z,12.94
2022-10-19T02:48:01.144Z,12.92
2022-10-19T02:50:28.521Z,12.91
2022-10-19T02:52:55.584Z,12.89
2022-10-19T02:58:34.445Z,12.81
2022-10-19T03:01:01.573Z,12.79
2022-10-19T03:03:28.653Z,12.71
2022-10-19T03:05:55.709Z,12.60
2022-10-19T03:08:22.751Z,12.52
2022-10-19T03:10:49.799Z,12.46
2022-10-19T03:13:17.770Z,12.47
2022-10-19T03:15:44.832Z,12.44
2022-10-19T03:18:11.953Z,12.41
2022-10-19T03:20:39.180Z,12.39
2022-10-19T03:23:06.290Z,12.34
2022-10-19T03:25:33.378Z,12.31
2022-10-19T03:28:00.518Z,12.25
2022-10-19T03:30:27.683Z,12.21
2022-10-19T03:32:54.820Z,12.15
2022-10-19T03:35:21.918Z,12.11
2022-10-19T03:37:48.928Z,12.09
2022-10-19T03:40:15.988Z,12.09
2022-10-19T03:42:43.022Z,12.05
2022-10-19T03:45:10.295Z,12.01
2022-10-19T03:47:37.354Z,12.02
2022-10-19T03:50:05.984Z,12.08
2022-10-19T03:52:33.144Z,12.11
2022-10-19T03:55:00.355Z,12.10
2022-10-19T03:57:27.446Z,12.08
2022-10-19T03:59:54.456Z,12.08
2022-10-19T04:02:21.567Z,12.04
2022-10-19T04:04:48.614Z,12.05
2022-10-19T04:07:15.665Z,12.02
2022-10-19T04:09:42.729Z,11.94
2022-10-19T04:12:09.782Z,11.86
2022-10-19T04:14:52.388Z,11.77
2022-10-19T04:17:23.207Z,11.61
2022-10-19T04:19:50.281Z,11.43
2022-10-19T04:22:17.384Z,11.28
2022-10-19T04:24:44.446Z,11.24
2022-10-19T04:27:11.472Z,11.22
2022-10-19T04:29:38.503Z,11.19
2022-10-19T04:32:05.715Z,11.16
2022-10-19T04:34:35.239Z,11.05
2022-10-19T04:37:04.982Z,11.02
2022-10-19T04:39:32.074Z,11.02
2022-10-19T04:41:59.211Z,11.01
2022-10-19T04:44:26.239Z,10.97
2022-10-19T04:46:53.306Z,10.89
2022-10-19T04:49:20.603Z,10.79
2022-10-19T04:51:47.728Z,10.76
2022-10-19T04:54:14.777Z,10.78
2022-10-19T04:56:41.835Z,10.71
2022-10-19T04:59:09.641Z,10.61
2022-10-19T05:01:36.939Z,10.54
2022-10-19T05:04:04.826Z,10.60
2022-10-19T05:06:32.217Z,10.61
2022-10-19T05:08:59.915Z,10.62
2022-10-19T05:11:27.538Z,10.59
2022-10-19T05:13:55.702Z,10.51
2022-10-19T05:16:23.384Z,10.45
2022-10-19T05:18:51.782Z,10.48
2022-10-19T05:21:20.590Z,10.40
2022-10-19T05:23:50.471Z,10.25
2022-10-19T05:26:18.825Z,10.07
2022-10-19T05:28:50.225Z,10.14
2022-10-19T05:31:18.789Z,10.19
2022-10-19T05:33:46.236Z,10.17
2022-10-19T05:36:26.703Z,10.11
2022-10-19T05:38:54.888Z,10.11
2022-10-19T05:41:23.286Z,10.13
2022-10-19T05:43:54.711Z,10.11
2022-10-19T05:46:22.033Z,10.11
2022-10-19T05:48:49.280Z,10.16
2022-10-19T05:51:17.819Z,10.14
2022-10-19T05:53:45.007Z,10.08
2022-10-19T05:56:16.593Z,10.08
2022-10-19T05:58:43.751Z,10.16
2022-10-19T06:01:11.185Z,10.21
2022-10-19T06:03:38.337Z,10.28
2022-10-19T06:06:06.253Z,10.35
2022-10-19T06:08:33.522Z,10.41
2022-10-19T06:11:08.006Z,10.45
2022-10-19T06:13:35.731Z,10.47
2022-10-19T06:16:02.977Z,10.43
2022-10-19T06:18:30.018Z,10.46
2022-10-19T06:21:00.954Z,10.51
2022-10-19T06:23:28.012Z,10.50
2022-10-19T06:25:55.112Z,10.55
2022-10-19T06:28:22.157Z,10.55
2022-10-19T06:30:49.314Z,10.59
2022-10-19T06:33:16.367Z,10.57
2022-10-19T06:35:43.474Z,10.59
2022-10-19T06:38:10.556Z,10.63
2022-10-19T06:40:37.662Z,10.71
2022-10-19T06:43:04.664Z,10.81
2022-10-19T06:45:35.718Z,11.01
2022-10-19T06:48:06.645Z,11.16
2022-10-19T06:50:35.440Z,11.39
2022-10-19T06:53:02.643Z,11.56
2022-10-19T06:55:29.715Z,11.78
2022-10-19T06:57:58.505Z,12.03
2022-10-19T07:00:25.711Z,12.35
2022-10-19T07:02:52.809Z,12.57
2022-10-19T07:05:20.123Z,12.80
2022-10-19T07:07:47.305Z,12.99
2022-10-19T07:10:14.380Z,13.12
2022-10-19T07:12:41.476Z,13.21
2022-10-19T07:15:08.751Z,13.32
2022-10-19T07:17:36.331Z,13.38
2022-10-19T07:20:03.865Z,13.44
2022-10-19T07:22:30.896Z,13.44
2022-10-19T07:24:58.379Z,13.37
2022-10-19T07:27:25.464Z,13.37
2022-10-19T07:29:52.513Z,13.28
2022-10-19T07:32:19.871Z,13.30
2022-10-19T07:34:47.148Z,13.23
2022-10-19T07:37:14.217Z,13.04
2022-10-19T07:39:41.271Z,12.96
2022-10-19T07:42:08.390Z,12.96
2022-10-19T07:44:36.343Z,13.09
2022-10-19T07:47:04.655Z,13.15
2022-10-19T07:49:31.768Z,13.34
2022-10-19T07:51:59.410Z,13.49
2022-10-19T07:54:27.413Z,13.56
2022-10-19T07:56:54.534Z,13.68
2022-10-19T07:59:21.640Z,13.73
2022-10-19T08:01:50.117Z,13.86
2022-10-19T08:07:04.696Z,14.14
2022-10-19T08:09:51.915Z,14.32
2022-10-19T08:12:18.891Z,14.30
2022-10-19T08:14:47.938Z,14.08
2022-10-19T08:17:17.445Z,14.27
2022-10-19T08:19:45.255Z,14.41
2022-10-19T08:22:12.757Z,14.44
2022-10-19T08:24:39.828Z,14.51
2022-10-19T08:27:06.858Z,14.72
2022-10-19T08:29:33.903Z,14.89
2022-10-19T08:32:00.976Z,14.95
2022-10-19T08:34:28.014Z,14.97
2022-10-19T08:36:55.097Z,14.87
2022-10-19T08:39:22.154Z,14.87
2022-10-19T08:42:01.300Z,15.04
2022-10-19T08:44:34.457Z,15.12
2022-10-19T08:47:23.308Z,15.23
2022-10-19T08:49:51.081Z,15.36
2022-10-19T08:52:20.042Z,15.46
2022-10-19T08:54:51.437Z,15.45
2022-10-19T08:57:36.885Z,15.36
2022-10-19T09:00:04.108Z,15.46
2022-10-19T09:03:06.777Z,15.68
2022-10-19T09:05:52.485Z,15.51
2022-10-19T09:08:20.223Z,15.57
2022-10-19T09:10:49.039Z,15.80
2022-10-19T09:13:29.263Z,15.86
2022-10-19T09:16:15.823Z,16.10
2022-10-19T09:18:43.695Z,16.26
2022-10-19T09:21:36.765Z,16.23
2022-10-19T09:24:29.102Z,16.48
2022-10-19T09:26:58.534Z,16.77
2022-10-19T09:29:44.170Z,16.89
2022-10-19T09:32:13.582Z,16.68
2022-10-19T09:34:45.746Z,16.73
2022-10-19T09:37:21.222Z,16.79
2022-10-19T09:39:54.103Z,16.75
2022-10-19T09:42:25.187Z,16.84
2022-10-19T09:44:52.982Z,16.80
2022-10-19T09:47:26.720Z,16.91
2022-10-19T09:50:06.035Z,16.93
2022-10-19T09:52:38.021Z,16.63
2022-10-19T09:55:13.857Z,16.81
2022-10-19T09:57:48.150Z,16.95
2022-10-19T10:00:18.376Z,16.81
2022-10-19T10:02:49.388Z,16.65
2022-10-19T10:05:16.651Z,16.79
2022-10-19T10:07:44.519Z,16.89
2022-10-19T10:10:19.410Z,16.76
2022-10-19T10:12:47.335Z,16.71
2022-10-19T10:15:17.746Z,16.75
2022-10-19T10:17:47.149Z,16.86
2022-10-19T10:20:23.649Z,16.95
2022-10-19T10:22:56.952Z,16.90
2022-10-19T10:25:25.759Z,16.97
2022-10-19T10:27:54.806Z,16.90
2022-10-19T10:30:21.907Z,17.03
2022-10-19T10:32:53.938Z,16.87
2022-10-19T10:35:36.748Z,16.95
2022-10-19T10:38:13.663Z,16.97
2022-10-19T10:40:41.401Z,16.99
2022-10-19T10:43:13.318Z,17.01
2022-10-19T10:45:46.429Z,16.94
2022-10-19T10:48:22.417Z,16.83
2022-10-19T10:50:52.019Z,16.84
2022-10-19T10:53:33.638Z,16.56
2022-10-19T10:56:01.168Z,16.32
2022-10-19T10:58:37.171Z,16.27
2022-10-19T11:01:07.947Z,16.35
2022-10-19T11:03:36.056Z,16.34
2022-10-19T11:06:03.309Z,16.34
2022-10-19T11:08:51.390Z,16.24
2022-10-19T11:11:24.070Z,16.19
2022-10-19T11:13:59.139Z,16.02
2022-10-19T11:16:35.455Z,16.04
2022-10-19T11:19:08.044Z,16.02
2022-10-19T11:21:42.546Z,15.89
2022-10-19T11:24:24.564Z,15.77
2022-10-19T11:26:51.641Z,15.47
2022-10-19T11:29:18.693Z,15.61
2022-10-19T11:31:51.378Z,15.55
2022-10-19T11:34:30.374Z,15.65
2022-10-19T11:37:02.818Z,15.54
2022-10-19T11:39:45.115Z,15.57
2022-10-19T11:42:17.340Z,15.74
2022-10-19T11:44:51.709Z,15.77
2022-10-19T11:47:29.672Z,15.64
2022-10-19T11:53:00.603Z,15.22
2022-10-19T11:55:35.529Z,15.17
2022-10-19T11:58:14.886Z,15.25
2022-10-19T12:00:49.059Z,15.18
2022-10-19T12:03:24.919Z,15.28
2022-10-19T12:06:08.105Z,15.03
2022-10-19T12:08:56.084Z,15.00
2022-10-19T12:11:27.528Z,14.91
2022-10-19T12:14:00.798Z,15.03
2022-10-19T12:16:35.499Z,14.87
2022-10-19T12:19:04.420Z,14.75
2022-10-19T12:21:34.149Z,14.76
2022-10-19T12:24:03.287Z,14.62
2022-10-19T12:26:32.567Z,14.62
2022-10-19T12:29:01.812Z,14.57
2022-10-19T12:31:29.605Z,14.44
2022-10-19T12:33:59.432Z,14.50
2022-10-19T12:36:35.558Z,14.51
2022-10-19T12:39:23.190Z,14.40
2022-10-19T12:41:53.205Z,14.46
2022-10-19T12:47:15.577Z,14.30
2022-10-19T12:49:47.512Z,14.24
2022-10-19T12:52:16.446Z,14.32
2022-10-19T12:54:44.065Z,14.29
2022-10-19T12:57:23.295Z,14.31
2022-10-19T13:00:26.005Z,14.43
2022-10-19T13:02:58.349Z,14.35
2022-10-19T13:05:27.767Z,14.34
2022-10-19T13:07:55.053Z,14.14
2022-10-19T13:10:23.552Z,14.04
2022-10-19T13:12:51.032Z,14.18
2022-10-19T13:15:36.445Z,14.26
2022-10-19T13:18:04.824Z,14.19
2022-10-19T13:20:33.763Z,14.29
2022-10-19T13:23:00.822Z,14.27
2022-10-19T13:25:28.589Z,14.07
2022-10-19T13:27:56.781Z,14.22
2022-10-19T13:30:39.151Z,14.09
2022-10-19T13:33:31.529Z,14.16
2022-10-19T13:35:58.611Z,14.11
2022-10-19T13:38:30.547Z,14.06
2022-10-19T13:41:03.725Z,13.95
2022-10-19T13:43:37.782Z,14.00
2022-10-19T13:46:07.546Z,13.94
2022-10-19T13:48:37.653Z,13.97
2022-10-19T13:51:27.749Z,13.95
2022-10-19T13:54:03.732Z,13.87
2022-10-19T13:56:49.319Z,13.83
2022-10-19T13:59:35.054Z,13.87
2022-10-19T14:02:23.678Z,13.94
2022-10-19T14:04:50.737Z,13.94
2022-10-19T14:07:25.270Z,13.93
2022-10-19T14:09:55.146Z,13.88
2022-10-19T14:12:24.428Z,13.83
2022-10-19T14:14:54.901Z,13.79
2022-10-19T14:17:27.851Z,13.76
2022-10-19T14:19:57.108Z,13.81
2022-10-19T14:22:34.232Z,13.85
2022-10-19T14:25:04.489Z,13.75
2022-10-19T14:27:33.962Z,13.79
2022-10-19T14:30:01.945Z,13.78
2022-10-19T14:32:29.522Z,13.78
2022-10-19T14:35:00.137Z,13.77
2022-10-19T14:37:27.429Z,13.74
2022-10-19T14:39:57.994Z,13.75
2022-10-19T14:42:35.169Z,13.78
2022-10-19T14:45:02.635Z,13.75
2022-10-19T14:47:30.479Z,13.68
2022-10-19T14:49:57.872Z,13.69
2022-10-19T14:55:02.059Z,13.66
2022-10-19T14:57:30.860Z,13.61
2022-10-19T15:00:00.711Z,13.57
2022-10-19T15:02:27.723Z,13.61
2022-10-19T15:04:56.300Z,13.60
2022-10-19T15:07:25.555Z,13.54
2022-10-19T15:09:57.940Z,13.53
2022-10-19T15:12:39.083Z,13.49
2022-10-19T15:15:11.358Z,13.51
2022-10-19T15:17:48.396Z,13.47
2022-10-19T15:20:27.704Z,13.44
2022-10-19T15:22:58.779Z,13.36
2022-10-19T15:25:28.022Z,13.37
2022-10-19T15:27:55.240Z,13.33
2022-10-19T15:30:25.119Z,13.29
2022-10-19T15:33:01.039Z,13.27
2022-10-19T15:35:37.853Z,13.25
2022-10-19T15:38:09.965Z,13.26
2022-10-19T15:40:40.202Z,13.23
2022-10-19T15:43:25.849Z,13.19
2022-10-19T15:46:03.319Z,13.22
2022-10-19T15:48:52.319Z,13.21
2022-10-19T15:51:25.329Z,13.14
2022-10-19T15:53:53.630Z,13.11
2022-10-19T15:56:21.303Z,13.05
2022-10-19T15:58:48.854Z,13.03
2022-10-19T16:01:16.875Z,13.02
2022-10-19T16:03:44.994Z,13.03
2022-10-19T16:06:12.661Z,12.99
2022-10-19T16:08:39.775Z,12.95
2022-10-19T16:11:10.765Z,12.88
2022-10-19T16:13:37.809Z,12.83
2022-10-19T16:16:11.235Z,12.65
2022-10-19T16:18:39.618Z,12.65
2022-10-19T16:21:06.767Z,12.69
2022-10-19T16:23:39.338Z,12.69
2022-10-19T16:26:09.099Z,12.67
2022-10-19T16:28:36.204Z,12.61
2022-10-19T16:31:03.290Z,12.58
2022-10-19T16:33:30.347Z,12.55
2022-10-19T16:35:57.359Z,12.46
2022-10-19T16:38:24.458Z,12.36
2022-10-19T16:40:51.563Z,12.32
2022-10-19T16:43:18.567Z,12.35
2022-10-19T16:45:45.600Z,12.29
2022-10-19T16:48:12.779Z,12.24
2022-10-19T16:50:39.963Z,12.14
2022-10-19T16:53:11.183Z,12.08
2022-10-19T16:55:39.703Z,12.09
2022-10-19T16:58:07.231Z,11.97
2022-10-19T17:00:35.394Z,11.92
2022-10-19T17:03:02.562Z,11.95
2022-10-19T17:05:29.682Z,11.98
2022-10-19T17:07:56.734Z,11.85
2022-10-19T17:10:24.582Z,11.77
2022-10-19T17:12:51.759Z,11.71
2022-10-19T17:15:41.479Z,11.65
2022-10-19T17:18:06.345Z,11.58
2022-10-19T17:20:33.503Z,11.45
2022-10-19T17:23:00.528Z,11.42
2022-10-19T17:25:27.549Z,11.40
2022-10-19T17:27:54.643Z,11.36
2022-10-19T17:30:21.700Z,11.41
2022-10-19T17:32:49.158Z,11.39
2022-10-19T17:35:16.221Z,11.37
2022-10-19T17:37:43.268Z,11.33
2022-10-19T17:40:10.588Z,11.35
2022-10-19T17:42:37.676Z,11.31
2022-10-19T17:45:06.428Z,11.25
2022-10-19T17:47:33.822Z,11.23
2022-10-19T17:50:01.090Z,11.26
2022-10-19T17:52:28.197Z,11.18
2022-10-19T17:57:42.321Z,11.07
2022-10-19T18:00:09.851Z,11.10
2022-10-19T18:02:40.597Z,11.08
2022-10-19T18:05:07.895Z,11.10
2022-10-19T18:07:35.318Z,11.07
2022-10-19T18:10:02.582Z,11.03
2022-10-19T18:12:30.081Z,10.99
2022-10-19T18:14:57.203Z,10.94
2022-10-19T18:17:27.697Z,10.96
2022-10-19T18:19:55.013Z,10.90
2022-10-19T18:22:22.176Z,10.91
2022-10-19T18:24:49.551Z,10.93
2022-10-19T18:27:16.708Z,10.93
2022-10-19T18:29:43.808Z,10.95
2022-10-19T18:32:11.597Z,10.95
2022-10-19T18:34:38.736Z,10.87
2022-10-19T18:37:07.174Z,10.81
2022-10-19T18:39:34.215Z,10.78
2022-10-19T18:42:01.285Z,10.75
2022-10-19T18:44:29.563Z,10.70
2022-10-19T18:46:59.671Z,10.57
2022-10-19T18:49:27.057Z,10.63
2022-10-19T18:51:55.785Z,10.57
2022-10-19T18:54:24.064Z,10.54
2022-10-19T18:56:51.444Z,10.44
2022-10-19T18:59:18.991Z,10.38
2022-10-19T19:01:46.160Z,10.28
2022-10-19T19:04:13.349Z,10.28
2022-10-19T19:06:40.509Z,10.27
2022-10-19T19:09:09.256Z,10.15
2022-10-19T19:11:38.193Z,10.17
2022-10-19T19:14:07.151Z,10.26
2022-10-19T19:16:35.763Z,10.25
2022-10-19T19:19:03.475Z,10.11
2022-10-19T19:21:31.304Z,10.08
2022-10-19T19:23:59.736Z,10.02
2022-10-19T19:26:28.487Z,10.01
2022-10-19T19:28:57.282Z,9.95
2022-10-19T19:31:24.393Z,9.91
2022-10-19T19:33:51.505Z,9.90
2022-10-19T19:36:19.651Z,9.90
2022-10-19T19:38:48.940Z,9.94
2022-10-19T19:41:16.191Z,9.93
2022-10-19T19:43:43.713Z,9.94
2022-10-19T19:46:12.830Z,9.95
2022-10-19T19:48:41.013Z,9.90
2022-10-19T19:51:09.057Z,9.93
2022-10-19T19:53:36.902Z,9.93
2022-10-19T19:56:05.521Z,9.87
2022-10-19T19:58:32.583Z,9.80
2022-10-19T20:00:59.613Z,9.83
2022-10-19T20:03:26.662Z,9.80
2022-10-19T20:05:53.709Z,9.68
2022-10-19T20:08:20.787Z,9.67
2022-10-19T20:10:47.844Z,9.56
2022-10-19T20:13:14.969Z,9.51
2022-10-19T20:15:42.004Z,9.51
2022-10-19T20:18:09.652Z,9.42
2022-10-19T20:20:36.847Z,9.45
2022-10-19T20:23:03.912Z,9.39
2022-10-19T20:25:30.984Z,9.37
2022-10-19T20:27:58.019Z,9.33
2022-10-19T20:30:25.071Z,9.31
2022-10-19T20:32:53.713Z,9.28
2022-10-19T20:35:20.711Z,9.27
2022-10-19T20:37:48.487Z,9.16
2022-10-19T20:40:16.203Z,9.07
2022-10-19T20:42:43.980Z,9.05
2022-10-19T20:45:13.053Z,8.94
2022-10-19T20:47:40.248Z,8.88
2022-10-19T20:50:08.256Z,8.87
2022-10-19T20:52:35.516Z,8.81
2022-10-19T20:55:02.929Z,8.85
2022-10-19T20:57:30.315Z,8.89
2022-10-19T20:59:57.359Z,8.79
2022-10-19T21:02:24.549Z,8.77
2022-10-19T21:04:51.605Z,8.75
2022-10-19T21:07:18.662Z,8.62
2022-10-19T21:09:45.718Z,8.57
2022-10-19T21:12:12.789Z,8.65
2022-10-19T21:14:39.933Z,8.67
2022-10-19T21:17:06.974Z,8.55
2022-10-19T21:19:34.297Z,8.55
2022-10-19T21:22:02.241Z,8.52
2022-10-19T21:24:32.239Z,8.45
2022-10-19T21:27:03.934Z,8.42
2022-10-19T21:29:31.258Z,8.39
2022-10-19T21:31:58.368Z,8.46
2022-10-19T21:34:26.924Z,8.42
2022-10-19T21:36:54.111Z,8.39
2022-10-19T21:39:21.701Z,8.30
2022-10-19T21:41:49.038Z,8.24
2022-10-19T21:44:17.062Z,8.15
2022-10-19T21:46:44.504Z,8.12
2022-10-19T21:49:12.254Z,8.12
2022-10-19T21:51:42.233Z,8.07
2022-10-19T21:56:44.626Z,8.04
2022-10-19T21:59:12.190Z,8.00
2022-10-19T22:01:41.250Z,8.01
2022-10-19T22:04:11.530Z,8.10
2022-10-19T22:06:38.638Z,8.06
2022-10-19T22:09:06.908Z,8.02
2022-10-19T22:11:34.428Z,7.97
2022-10-19T22:14:02.758Z,8.00
2022-10-19T22:16:30.713Z,7.95
2022-10-19T22:18:57.980Z,7.99
2022-10-19T22:21:29.730Z,8.03
2022-10-19T22:24:04.367Z,8.01
2022-10-19T22:26:33.189Z,8.00
2022-10-19T22:29:00.925Z,7.88
2022-10-19T22:31:29.177Z,7.87
2022-10-19T22:33:56.347Z,7.87
2022-10-19T22:36:23.379Z,7.91
2022-10-19T22:38:50.535Z,7.86
2022-10-19T22:41:17.604Z,7.84
2022-10-19T22:43:44.638Z,7.78
2022-10-19T22:46:11.718Z,7.72
2022-10-19T22:48:38.791Z,7.72
2022-10-19T22:51:05.897Z,7.65
2022-10-19T22:53:32.911Z,7.64
2022-10-19T22:55:59.932Z,7.62
2022-10-19T22:58:26.988Z,7.52
2022-10-19T23:01:04.754Z,7.47
2022-10-19T23:03:31.879Z,7.51
2022-10-19T23:05:59.082Z,7.53
2022-10-19T23:08:26.703Z,7.52
2022-10-19T23:10:53.904Z,7.56
2022-10-19T23:13:20.986Z,7.58
2022-10-19T23:15:48.013Z,7.66
2022-10-19T23:18:15.115Z,7.68
2022-10-19T23:20:42.541Z,7.59
2022-10-19T23:23:09.710Z,7.52
2022-10-19T23:25:36.803Z,7.50
2022-10-19T23:28:03.979Z,7.55
2022-10-19T23:30:31.074Z,7.60
2022-10-19T23:32:58.173Z,7.61
2022-10-19T23:35:25.347Z,7.53
2022-10-19T23:37:52.421Z,7.54
2022-10-19T23:40:19.818Z,7.57
2022-10-19T23:42:46.849Z,7.60
2022-10-19T23:45:15.250Z,7.64
2022-10-19T23:47:42.324Z,7.60
2022-10-19T23:50:09.497Z,7.56
2022-10-19T23:52:36.571Z,7.56
2022-10-19T23:55:03.798Z,7.45
2022-10-19T23:57:30.879Z,7.30
2022-10-19T23:59:58.040Z,7.17
